sensor_id;sensor_type;location;lat;lon;timestamp;pressure;altitude;pressure_sealevel;temperature;humidity
55801;BME280;41730;51.960;20.158;2023-03-14T00:00:24;98549.40;;;9.97;62.55
55801;BME280;41730;51.960;20.158;2023-03-14T00:02:55;98544.04;;;10.00;62.55
55801;BME280;41730;51.960;20.158;2023-03-14T00:05:27;98538.73;;;10.09;62.18
55801;BME280;41730;51.960;20.158;2023-03-14T00:07:59;98531.34;;;10.13;62.03
55801;BME280;41730;51.960;20.158;2023-03-14T00:10:31;98524.88;;;10.08;62.13
55801;BME280;41730;51.960;20.158;2023-03-14T00:13:03;98519.39;;;9.98;62.34
55801;BME280;41730;51.960;20.158;2023-03-14T00:15:35;98521.56;;;9.88;62.63
55801;BME280;41730;51.960;20.158;2023-03-14T00:18:07;98516.02;;;9.91;62.52
55801;BME280;41730;51.960;20.158;2023-03-14T00:20:39;98508.11;;;9.86;62.65
55801;BME280;41730;51.960;20.158;2023-03-14T00:23:11;98511.65;;;9.85;62.75
55801;BME280;41730;51.960;20.158;2023-03-14T00:25:43;98509.46;;;10.04;62.15
55801;BME280;41730;51.960;20.158;2023-03-14T00:28:16;98514.30;;;10.07;62.06
55801;BME280;41730;51.960;20.158;2023-03-14T00:30:48;98512.03;;;10.13;61.79
55801;BME280;41730;51.960;20.158;2023-03-14T00:33:21;98507.24;;;10.03;62.14
55801;BME280;41730;51.960;20.158;2023-03-14T00:36:01;98509.23;;;9.99;62.08
55801;BME280;41730;51.960;20.158;2023-03-14T00:38:34;98515.06;;;10.01;61.92
55801;BME280;41730;51.960;20.158;2023-03-14T00:41:07;98514.18;;;9.94;62.22
55801;BME280;41730;51.960;20.158;2023-03-14T00:43:40;98508.70;;;9.95;62.18
55801;BME280;41730;51.960;20.158;2023-03-14T00:46:13;98503.73;;;9.91;62.23
55801;BME280;41730;51.960;20.158;2023-03-14T00:48:45;98500.67;;;10.01;61.84
55801;BME280;41730;51.960;20.158;2023-03-14T00:51:17;98493.39;;;10.04;61.72
55801;BME280;41730;51.960;20.158;2023-03-14T00:53:49;98487.64;;;10.07;61.44
55801;BME280;41730;51.960;20.158;2023-03-14T00:56:21;98479.17;;;10.04;61.61
55801;BME280;41730;51.960;20.158;2023-03-14T00:58:56;98476.30;;;10.15;61.27
55801;BME280;41730;51.960;20.158;2023-03-14T01:01:28;98478.98;;;10.16;61.08
55801;BME280;41730;51.960;20.158;2023-03-14T01:04:00;98477.95;;;10.16;61.08
55801;BME280;41730;51.960;20.158;2023-03-14T01:06:32;98478.57;;;10.16;60.86
55801;BME280;41730;51.960;20.158;2023-03-14T01:09:04;98474.79;;;10.03;61.20
55801;BME280;41730;51.960;20.158;2023-03-14T01:11:37;98472.91;;;10.00;61.27
55801;BME280;41730;51.960;20.158;2023-03-14T01:14:10;98466.77;;;9.81;61.56
55801;BME280;41730;51.960;20.158;2023-03-14T01:16:42;98466.95;;;9.76;61.69
55801;BME280;41730;51.960;20.158;2023-03-14T01:19:14;98464.34;;;9.74;61.83
55801;BME280;41730;51.960;20.158;2023-03-14T01:21:45;98463.17;;;9.69;61.84
55801;BME280;41730;51.960;20.158;2023-03-14T01:24:17;98465.18;;;9.70;62.06
55801;BME280;41730;51.960;20.158;2023-03-14T01:26:49;98463.55;;;9.62;62.05
55801;BME280;41730;51.960;20.158;2023-03-14T01:29:20;98458.64;;;9.55;62.07
55801;BME280;41730;51.960;20.158;2023-03-14T01:31:52;98455.56;;;9.67;61.95
55801;BME280;41730;51.960;20.158;2023-03-14T01:34:24;98456.08;;;9.65;62.06
55801;BME280;41730;51.960;20.158;2023-03-14T01:36:56;98452.05;;;9.62;61.86
55801;BME280;41730;51.960;20.158;2023-03-14T01:39:28;98453.77;;;9.47;62.18
55801;BME280;41730;51.960;20.158;2023-03-14T01:41:59;98450.83;;;9.42;62.32
55801;BME280;41730;51.960;20.158;2023-03-14T01:44:54;98451.79;;;9.54;62.01
55801;BME280;41730;51.960;20.158;2023-03-14T01:47:27;98448.45;;;9.55;61.82
55801;BME280;41730;51.960;20.158;2023-03-14T01:50:01;98452.39;;;9.48;61.87
55801;BME280;41730;51.960;20.158;2023-03-14T01:52:38;98449.06;;;9.50;61.87
55801;BME280;41730;51.960;20.158;2023-03-14T01:55:14;98443.29;;;9.47;61.86
55801;BME280;41730;51.960;20.158;2023-03-14T01:57:49;98433.05;;;9.36;61.95
55801;BME280;41730;51.960;20.158;2023-03-14T02:00:24;98436.31;;;9.29;61.89
55801;BME280;41730;51.960;20.158;2023-03-14T02:02:58;98437.02;;;9.22;62.05
55801;BME280;41730;51.960;20.158;2023-03-14T02:05:34;98424.89;;;9.23;62.25
55801;BME280;41730;51.960;20.158;2023-03-14T02:08:09;98416.35;;;9.30;62.03
55801;BME280;41730;51.960;20.158;2023-03-14T02:10:45;98406.70;;;9.23;62.27
55801;BME280;41730;51.960;20.158;2023-03-14T02:13:20;98399.41;;;9.15;62.29
55801;BME280;41730;51.960;20.158;2023-03-14T02:15:50;98398.40;;;9.22;62.32
55801;BME280;41730;51.960;20.158;2023-03-14T02:18:23;98402.35;;;9.29;62.03
55801;BME280;41730;51.960;20.158;2023-03-14T02:20:59;98406.05;;;9.22;62.23
55801;BME280;41730;51.960;20.158;2023-03-14T02:23:37;98402.86;;;9.17;62.19
55801;BME280;41730;51.960;20.158;2023-03-14T02:26:16;98395.73;;;9.09;62.44
55801;BME280;41730;51.960;20.158;2023-03-14T02:28:51;98395.06;;;9.20;62.20
55801;BME280;41730;51.960;20.158;2023-03-14T02:31:24;98394.24;;;9.23;62.20
55801;BME280;41730;51.960;20.158;2023-03-14T02:33:59;98398.90;;;9.21;61.99
55801;BME280;41730;51.960;20.158;2023-03-14T02:36:31;98406.14;;;9.20;62.33
55801;BME280;41730;51.960;20.158;2023-03-14T02:39:10;98398.23;;;9.15;62.13
55801;BME280;41730;51.960;20.158;2023-03-14T02:41:46;98396.56;;;9.12;61.93
55801;BME280;41730;51.960;20.158;2023-03-14T02:44:19;98388.78;;;9.10;62.44
55801;BME280;41730;51.960;20.158;2023-03-14T02:46:51;98397.69;;;8.99;62.74
55801;BME280;41730;51.960;20.158;2023-03-14T02:49:23;98387.82;;;8.99;62.73
55801;BME280;41730;51.960;20.158;2023-03-14T02:51:56;98385.61;;;9.12;62.31
55801;BME280;41730;51.960;20.158;2023-03-14T02:54:28;98385.38;;;9.09;62.36
55801;BME280;41730;51.960;20.158;2023-03-14T02:56:59;98381.63;;;9.03;62.62
55801;BME280;41730;51.960;20.158;2023-03-14T02:59:31;98377.73;;;9.10;62.24
55801;BME280;41730;51.960;20.158;2023-03-14T03:02:03;98362.25;;;9.15;62.43
55801;BME280;41730;51.960;20.158;2023-03-14T03:04:35;98367.30;;;9.22;62.10
55801;BME280;41730;51.960;20.158;2023-03-14T03:07:07;98364.05;;;9.19;62.08
55801;BME280;41730;51.960;20.158;2023-03-14T03:09:39;98369.64;;;9.11;62.34
55801;BME280;41730;51.960;20.158;2023-03-14T03:12:11;98360.70;;;9.16;62.20
55801;BME280;41730;51.960;20.158;2023-03-14T03:14:43;98366.39;;;9.02;62.40
55801;BME280;41730;51.960;20.158;2023-03-14T03:17:15;98371.06;;;8.89;62.71
55801;BME280;41730;51.960;20.158;2023-03-14T03:19:47;98368.03;;;8.82;62.96
55801;BME280;41730;51.960;20.158;2023-03-14T03:22:19;98365.94;;;8.83;62.96
55801;BME280;41730;51.960;20.158;2023-03-14T03:24:52;98351.52;;;8.89;62.41
55801;BME280;41730;51.960;20.158;2023-03-14T03:27:24;98352.20;;;8.92;62.46
55801;BME280;41730;51.960;20.158;2023-03-14T03:29:56;98354.52;;;8.89;62.69
55801;BME280;41730;51.960;20.158;2023-03-14T03:32:28;98362.84;;;8.67;62.98
55801;BME280;41730;51.960;20.158;2023-03-14T03:35:00;98371.02;;;8.61;63.25
55801;BME280;41730;51.960;20.158;2023-03-14T03:37:33;98368.88;;;8.65;62.86
55801;BME280;41730;51.960;20.158;2023-03-14T03:40:09;98377.66;;;8.59;63.19
55801;BME280;41730;51.960;20.158;2023-03-14T03:42:40;98367.73;;;8.58;62.76
55801;BME280;41730;51.960;20.158;2023-03-14T03:45:12;98373.48;;;8.52;63.07
55801;BME280;41730;51.960;20.158;2023-03-14T03:47:44;98363.05;;;8.42;63.34
55801;BME280;41730;51.960;20.158;2023-03-14T03:50:16;98354.73;;;8.36;63.29
55801;BME280;41730;51.960;20.158;2023-03-14T03:52:48;98341.73;;;8.44;63.27
55801;BME280;41730;51.960;20.158;2023-03-14T03:55:20;98337.08;;;8.43;62.99
55801;BME280;41730;51.960;20.158;2023-03-14T03:57:51;98332.73;;;8.39;63.46
55801;BME280;41730;51.960;20.158;2023-03-14T04:00:23;98335.52;;;8.36;63.00
55801;BME280;41730;51.960;20.158;2023-03-14T04:02:55;98337.61;;;8.34;63.03
55801;BME280;41730;51.960;20.158;2023-03-14T04:05:27;98336.52;;;8.39;63.17
55801;BME280;41730;51.960;20.158;2023-03-14T04:07:59;98326.95;;;8.29;63.63
55801;BME280;41730;51.960;20.158;2023-03-14T04:10:33;98322.59;;;8.42;63.17
55801;BME280;41730;51.960;20.158;2023-03-14T04:13:05;98316.20;;;8.52;63.29
55801;BME280;41730;51.960;20.158;2023-03-14T04:15:37;98310.20;;;8.48;62.66
55801;BME280;41730;51.960;20.158;2023-03-14T04:18:10;98304.08;;;8.48;63.05
55801;BME280;41730;51.960;20.158;2023-03-14T04:20:41;98297.09;;;8.60;62.67
55801;BME280;41730;51.960;20.158;2023-03-14T04:23:14;98298.77;;;8.65;62.42
55801;BME280;41730;51.960;20.158;2023-03-14T04:25:58;98293.48;;;8.66;62.52
55801;BME280;41730;51.960;20.158;2023-03-14T04:28:41;98277.39;;;8.73;62.13
55801;BME280;41730;51.960;20.158;2023-03-14T04:31:25;98280.34;;;8.78;62.10
55801;BME280;41730;51.960;20.158;2023-03-14T04:34:06;98288.84;;;8.92;61.82
55801;BME280;41730;51.960;20.158;2023-03-14T04:36:44;98285.21;;;9.06;61.22
55801;BME280;41730;51.960;20.158;2023-03-14T04:39:17;98289.98;;;9.04;61.32
55801;BME280;41730;51.960;20.158;2023-03-14T04:41:49;98279.17;;;9.04;61.07
55801;BME280;41730;51.960;20.158;2023-03-14T04:44:20;98266.63;;;9.00;61.11
55801;BME280;41730;51.960;20.158;2023-03-14T04:46:52;98274.69;;;8.91;61.35
55801;BME280;41730;51.960;20.158;2023-03-14T04:49:24;98262.11;;;8.97;61.19
55801;BME280;41730;51.960;20.158;2023-03-14T04:51:56;98268.39;;;8.85;61.32
55801;BME280;41730;51.960;20.158;2023-03-14T04:54:28;98272.36;;;8.76;61.58
55801;BME280;41730;51.960;20.158;2023-03-14T04:56:59;98276.34;;;8.71;61.58
55801;BME280;41730;51.960;20.158;2023-03-14T04:59:31;98270.46;;;8.84;61.49
55801;BME280;41730;51.960;20.158;2023-03-14T05:02:02;98264.34;;;8.90;61.05
55801;BME280;41730;51.960;20.158;2023-03-14T05:04:35;98260.63;;;8.87;60.91
55801;BME280;41730;51.960;20.158;2023-03-14T05:07:07;98258.20;;;8.84;61.28
55801;BME280;41730;51.960;20.158;2023-03-14T05:09:39;98257.63;;;8.90;60.89
55801;BME280;41730;51.960;20.158;2023-03-14T05:12:12;98256.96;;;8.84;61.25
55801;BME280;41730;51.960;20.158;2023-03-14T05:14:44;98248.67;;;8.85;60.99
55801;BME280;41730;51.960;20.158;2023-03-14T05:17:16;98239.69;;;8.81;61.25
55801;BME280;41730;51.960;20.158;2023-03-14T05:19:48;98227.70;;;8.87;61.17
55801;BME280;41730;51.960;20.158;2023-03-14T05:22:21;98220.99;;;8.92;61.30
55801;BME280;41730;51.960;20.158;2023-03-14T05:24:52;98209.60;;;9.05;61.05
55801;BME280;41730;51.960;20.158;2023-03-14T05:27:28;98206.48;;;9.08;61.14
55801;BME280;41730;51.960;20.158;2023-03-14T05:30:00;98200.67;;;9.25;60.82
55801;BME280;41730;51.960;20.158;2023-03-14T05:32:33;98204.36;;;9.44;60.28
55801;BME280;41730;51.960;20.158;2023-03-14T05:35:06;98192.74;;;9.55;60.66
55801;BME280;41730;51.960;20.158;2023-03-14T05:37:37;98190.36;;;9.86;60.59
55801;BME280;41730;51.960;20.158;2023-03-14T05:40:12;98190.10;;;10.31;60.68
55801;BME280;41730;51.960;20.158;2023-03-14T05:42:43;98177.93;;;10.88;59.83
55801;BME280;41730;51.960;20.158;2023-03-14T05:45:15;98179.25;;;11.47;59.21
55801;BME280;41730;51.960;20.158;2023-03-14T05:47:47;98168.72;;;11.82;58.64
55801;BME280;41730;51.960;20.158;2023-03-14T05:50:19;98172.78;;;12.19;57.58
55801;BME280;41730;51.960;20.158;2023-03-14T05:52:51;98168.41;;;12.53;56.52
55801;BME280;41730;51.960;20.158;2023-03-14T05:55:23;98167.67;;;12.75;56.33
55801;BME280;41730;51.960;20.158;2023-03-14T05:57:55;98166.46;;;12.94;55.51
55801;BME280;41730;51.960;20.158;2023-03-14T06:00:27;98168.90;;;12.94;54.07
55801;BME280;41730;51.960;20.158;2023-03-14T06:02:59;98167.20;;;12.69;54.36
55801;BME280;41730;51.960;20.158;2023-03-14T06:05:30;98167.88;;;12.53;55.00
55801;BME280;41730;51.960;20.158;2023-03-14T06:08:02;98162.35;;;12.34;54.27
55801;BME280;41730;51.960;20.158;2023-03-14T06:10:35;98163.13;;;12.26;54.68
55801;BME280;41730;51.960;20.158;2023-03-14T06:13:08;98165.08;;;12.37;55.21
55801;BME280;41730;51.960;20.158;2023-03-14T06:15:41;98153.42;;;12.66;55.57
55801;BME280;41730;51.960;20.158;2023-03-14T06:18:12;98148.09;;;13.09;55.40
55801;BME280;41730;51.960;20.158;2023-03-14T06:20:45;98119.02;;;13.48;53.51
55801;BME280;41730;51.960;20.158;2023-03-14T06:23:17;98130.80;;;13.83;52.96
55801;BME280;41730;51.960;20.158;2023-03-14T06:25:50;98135.02;;;14.06;52.65
55801;BME280;41730;51.960;20.158;2023-03-14T06:28:21;98133.77;;;14.17;52.70
55801;BME280;41730;51.960;20.158;2023-03-14T06:30:55;98137.71;;;14.40;52.92
55801;BME280;41730;51.960;20.158;2023-03-14T06:33:26;98148.17;;;14.72;52.60
55801;BME280;41730;51.960;20.158;2023-03-14T06:35:58;98150.35;;;15.02;51.90
55801;BME280;41730;51.960;20.158;2023-03-14T06:38:30;98150.28;;;15.23;51.61
55801;BME280;41730;51.960;20.158;2023-03-14T06:41:06;98149.40;;;15.45;51.06
55801;BME280;41730;51.960;20.158;2023-03-14T06:43:38;98158.77;;;15.62;50.69
55801;BME280;41730;51.960;20.158;2023-03-14T06:46:10;98167.69;;;15.79;49.69
55801;BME280;41730;51.960;20.158;2023-03-14T06:48:42;98170.27;;;15.94;48.76
55801;BME280;41730;51.960;20.158;2023-03-14T06:51:13;98166.80;;;15.87;48.49
55801;BME280;41730;51.960;20.158;2023-03-14T06:53:45;98170.73;;;15.74;48.91
55801;BME280;41730;51.960;20.158;2023-03-14T06:56:17;98169.02;;;15.75;48.83
55801;BME280;41730;51.960;20.158;2023-03-14T06:58:49;98169.44;;;15.63;49.02
55801;BME280;41730;51.960;20.158;2023-03-14T07:01:26;98171.84;;;15.47;48.68
55801;BME280;41730;51.960;20.158;2023-03-14T07:03:58;98181.30;;;15.26;48.72
55801;BME280;41730;51.960;20.158;2023-03-14T07:06:30;98176.08;;;15.19;48.72
55801;BME280;41730;51.960;20.158;2023-03-14T07:09:02;98178.29;;;14.99;48.95
55801;BME280;41730;51.960;20.158;2023-03-14T07:11:34;98179.39;;;14.92;49.25
55801;BME280;41730;51.960;20.158;2023-03-14T07:14:06;98177.75;;;14.95;49.30
55801;BME280;41730;51.960;20.158;2023-03-14T07:16:37;98176.41;;;15.03;49.46
55801;BME280;41730;51.960;20.158;2023-03-14T07:19:11;98174.76;;;15.16;49.62
55801;BME280;41730;51.960;20.158;2023-03-14T07:21:42;98162.61;;;15.25;49.52
55801;BME280;41730;51.960;20.158;2023-03-14T07:24:15;98154.81;;;15.31;49.14
55801;BME280;41730;51.960;20.158;2023-03-14T07:26:46;98152.09;;;15.29;48.91
55801;BME280;41730;51.960;20.158;2023-03-14T07:29:18;98153.79;;;15.12;48.97
55801;BME280;41730;51.960;20.158;2023-03-14T07:31:50;98154.91;;;14.97;49.32
55801;BME280;41730;51.960;20.158;2023-03-14T07:34:21;98152.08;;;14.90;49.38
55801;BME280;41730;51.960;20.158;2023-03-14T07:36:53;98163.19;;;14.88;49.34
55801;BME280;41730;51.960;20.158;2023-03-14T07:39:25;98165.95;;;14.79;49.40
55801;BME280;41730;51.960;20.158;2023-03-14T07:41:56;98167.52;;;14.67;49.45
55801;BME280;41730;51.960;20.158;2023-03-14T07:44:29;98169.66;;;14.47;49.87
55801;BME280;41730;51.960;20.158;2023-03-14T07:47:01;98161.69;;;14.31;49.65
55801;BME280;41730;51.960;20.158;2023-03-14T07:49:32;98166.14;;;14.28;49.82
55801;BME280;41730;51.960;20.158;2023-03-14T07:52:04;98170.40;;;14.28;49.88
55801;BME280;41730;51.960;20.158;2023-03-14T07:54:36;98173.70;;;14.15;50.05
55801;BME280;41730;51.960;20.158;2023-03-14T07:57:07;98185.12;;;13.99;50.41
55801;BME280;41730;51.960;20.158;2023-03-14T07:59:39;98192.35;;;13.96;50.45
55801;BME280;41730;51.960;20.158;2023-03-14T08:02:12;98196.95;;;13.89;50.82
55801;BME280;41730;51.960;20.158;2023-03-14T08:04:46;98200.80;;;13.83;51.06
55801;BME280;41730;51.960;20.158;2023-03-14T08:07:19;98201.05;;;13.93;51.20
55801;BME280;41730;51.960;20.158;2023-03-14T08:09:50;98195.77;;;13.97;51.16
55801;BME280;41730;51.960;20.158;2023-03-14T08:12:22;98206.41;;;14.04;51.15
55801;BME280;41730;51.960;20.158;2023-03-14T08:14:54;98204.46;;;14.18;51.47
55801;BME280;41730;51.960;20.158;2023-03-14T08:17:26;98195.46;;;14.33;51.52
55801;BME280;41730;51.960;20.158;2023-03-14T08:19:57;98201.44;;;14.59;50.98
55801;BME280;41730;51.960;20.158;2023-03-14T08:22:29;98204.31;;;14.84;50.81
55801;BME280;41730;51.960;20.158;2023-03-14T08:25:02;98199.87;;;15.09;50.48
55801;BME280;41730;51.960;20.158;2023-03-14T08:27:35;98198.88;;;15.23;50.37
55801;BME280;41730;51.960;20.158;2023-03-14T08:30:12;98199.06;;;15.34;49.96
55801;BME280;41730;51.960;20.158;2023-03-14T08:32:44;98200.16;;;15.35;49.99
55801;BME280;41730;51.960;20.158;2023-03-14T08:35:16;98203.25;;;15.34;49.86
55801;BME280;41730;51.960;20.158;2023-03-14T08:37:48;98199.02;;;15.34;50.23
55801;BME280;41730;51.960;20.158;2023-03-14T08:40:21;98194.73;;;15.35;50.02
55801;BME280;41730;51.960;20.158;2023-03-14T08:42:54;98196.83;;;15.28;50.01
55801;BME280;41730;51.960;20.158;2023-03-14T08:45:25;98191.70;;;15.26;50.02
55801;BME280;41730;51.960;20.158;2023-03-14T08:47:58;98195.85;;;15.25;50.21
55801;BME280;41730;51.960;20.158;2023-03-14T08:50:30;98195.53;;;15.21;50.19
55801;BME280;41730;51.960;20.158;2023-03-14T08:53:02;98197.14;;;15.08;49.86
55801;BME280;41730;51.960;20.158;2023-03-14T08:55:34;98194.05;;;14.95;49.89
55801;BME280;41730;51.960;20.158;2023-03-14T08:58:05;98193.56;;;14.88;49.94
55801;BME280;41730;51.960;20.158;2023-03-14T09:00:37;98188.63;;;14.84;50.13
55801;BME280;41730;51.960;20.158;2023-03-14T09:03:09;98181.86;;;14.84;50.26
55801;BME280;41730;51.960;20.158;2023-03-14T09:05:41;98175.08;;;14.93;49.98
55801;BME280;41730;51.960;20.158;2023-03-14T09:08:12;98168.27;;;15.00;49.86
55801;BME280;41730;51.960;20.158;2023-03-14T09:10:44;98164.14;;;15.10;49.66
55801;BME280;41730;51.960;20.158;2023-03-14T09:13:16;98168.17;;;15.11;49.55
55801;BME280;41730;51.960;20.158;2023-03-14T09:16:00;98164.83;;;15.17;49.39
55801;BME280;41730;51.960;20.158;2023-03-14T09:18:33;98165.98;;;15.32;49.34
55801;BME280;41730;51.960;20.158;2023-03-14T09:21:09;98165.45;;;15.49;49.25
55801;BME280;41730;51.960;20.158;2023-03-14T09:23:41;98164.75;;;15.49;49.41
55801;BME280;41730;51.960;20.158;2023-03-14T09:26:16;98164.61;;;15.53;49.01
55801;BME280;41730;51.960;20.158;2023-03-14T09:28:48;98166.97;;;15.40;48.85
55801;BME280;41730;51.960;20.158;2023-03-14T09:31:20;98160.13;;;15.22;49.08
55801;BME280;41730;51.960;20.158;2023-03-14T09:33:52;98157.48;;;15.20;49.26
55801;BME280;41730;51.960;20.158;2023-03-14T09:36:24;98152.84;;;15.21;49.23
55801;BME280;41730;51.960;20.158;2023-03-14T09:38:56;98153.73;;;15.23;49.33
55801;BME280;41730;51.960;20.158;2023-03-14T09:41:31;98142.70;;;15.21;49.15
55801;BME280;41730;51.960;20.158;2023-03-14T09:44:08;98151.51;;;15.16;49.31
55801;BME280;41730;51.960;20.158;2023-03-14T09:46:43;98162.55;;;15.06;49.68
55801;BME280;41730;51.960;20.158;2023-03-14T09:49:23;98159.45;;;15.12;49.63
55801;BME280;41730;51.960;20.158;2023-03-14T09:51:59;98168.66;;;15.14;49.67
55801;BME280;41730;51.960;20.158;2023-03-14T09:54:37;98149.02;;;15.20;49.36
55801;BME280;41730;51.960;20.158;2023-03-14T09:57:13;98145.73;;;15.13;49.62
55801;BME280;41730;51.960;20.158;2023-03-14T09:59:48;98147.84;;;15.18;49.36
55801;BME280;41730;51.960;20.158;2023-03-14T10:02:22;98148.98;;;15.18;49.40
55801;BME280;41730;51.960;20.158;2023-03-14T10:04:55;98146.83;;;15.28;49.83
55801;BME280;41730;51.960;20.158;2023-03-14T10:07:31;98161.64;;;15.39;49.81
55801;BME280;41730;51.960;20.158;2023-03-14T10:10:13;98163.98;;;15.49;49.69
55801;BME280;41730;51.960;20.158;2023-03-14T10:12:53;98157.79;;;15.65;49.18
55801;BME280;41730;51.960;20.158;2023-03-14T10:15:29;98154.02;;;15.67;49.14
55801;BME280;41730;51.960;20.158;2023-03-14T10:18:03;98145.17;;;15.71;49.08
55801;BME280;41730;51.960;20.158;2023-03-14T10:20:41;98139.88;;;15.68;48.91
55801;BME280;41730;51.960;20.158;2023-03-14T10:23:27;98141.77;;;15.60;49.21
55801;BME280;41730;51.960;20.158;2023-03-14T10:26:07;98142.69;;;15.52;49.55
55801;BME280;41730;51.960;20.158;2023-03-14T10:28:45;98140.77;;;15.57;49.57
55801;BME280;41730;51.960;20.158;2023-03-14T10:31:17;98134.73;;;15.57;49.55
55801;BME280;41730;51.960;20.158;2023-03-14T10:34:01;98138.74;;;15.53;49.59
55801;BME280;41730;51.960;20.158;2023-03-14T10:36:33;98137.20;;;15.50;49.85
55801;BME280;41730;51.960;20.158;2023-03-14T10:39:25;98119.13;;;15.54;49.80
55801;BME280;41730;51.960;20.158;2023-03-14T10:42:05;98118.83;;;15.61;49.55
55801;BME280;41730;51.960;20.158;2023-03-14T10:44:39;98120.73;;;15.64;49.59
55801;BME280;41730;51.960;20.158;2023-03-14T10:47:18;98126.51;;;15.65;49.54
55801;BME280;41730;51.960;20.158;2023-03-14T10:49:51;98135.05;;;15.67;49.46
55801;BME280;41730;51.960;20.158;2023-03-14T10:52:27;98140.23;;;15.59;49.42
55801;BME280;41730;51.960;20.158;2023-03-14T10:55:20;98144.71;;;15.45;49.83
55801;BME280;41730;51.960;20.158;2023-03-14T10:57:52;98145.14;;;15.40;49.75
55801;BME280;41730;51.960;20.158;2023-03-14T11:00:24;98152.14;;;15.30;49.86
55801;BME280;41730;51.960;20.158;2023-03-14T11:03:10;98152.31;;;15.19;50.04
55801;BME280;41730;51.960;20.158;2023-03-14T11:05:46;98154.81;;;15.11;50.44
55801;BME280;41730;51.960;20.158;2023-03-14T11:08:25;98151.43;;;15.12;50.50
55801;BME280;41730;51.960;20.158;2023-03-14T11:11:09;98154.77;;;15.07;50.63
55801;BME280;41730;51.960;20.158;2023-03-14T11:13:43;98158.00;;;15.03;50.73
55801;BME280;41730;51.960;20.158;2023-03-14T11:16:29;98160.02;;;15.08;50.60
55801;BME280;41730;51.960;20.158;2023-03-14T11:19:26;98156.29;;;15.03;50.77
55801;BME280;41730;51.960;20.158;2023-03-14T11:22:08;98162.36;;;15.03;50.88
55801;BME280;41730;51.960;20.158;2023-03-14T11:24:58;98165.58;;;15.06;50.92
55801;BME280;41730;51.960;20.158;2023-03-14T11:27:40;98174.34;;;15.02;50.86
55801;BME280;41730;51.960;20.158;2023-03-14T11:30:25;98171.61;;;14.96;50.99
55801;BME280;41730;51.960;20.158;2023-03-14T11:33:08;98175.32;;;14.88;51.35
55801;BME280;41730;51.960;20.158;2023-03-14T11:35:45;98168.36;;;14.76;51.39
55801;BME280;41730;51.960;20.158;2023-03-14T11:38:31;98168.64;;;14.68;51.71
55801;BME280;41730;51.960;20.158;2023-03-14T11:41:08;98166.16;;;14.82;51.76
55801;BME280;41730;51.960;20.158;2023-03-14T11:43:42;98159.04;;;14.86;51.65
55801;BME280;41730;51.960;20.158;2023-03-14T11:46:22;98155.69;;;14.86;51.65
55801;BME280;41730;51.960;20.158;2023-03-14T11:49:01;98155.98;;;14.95;51.61
55801;BME280;41730;51.960;20.158;2023-03-14T11:51:38;98160.45;;;14.94;51.61
55801;BME280;41730;51.960;20.158;2023-03-14T11:54:17;98169.17;;;14.87;51.81
55801;BME280;41730;51.960;20.158;2023-03-14T11:56:53;98183.61;;;14.83;51.87
55801;BME280;41730;51.960;20.158;2023-03-14T11:59:29;98188.11;;;14.71;52.19
55801;BME280;41730;51.960;20.158;2023-03-14T12:02:05;98183.73;;;14.61;52.26
55801;BME280;41730;51.960;20.158;2023-03-14T12:04:47;98177.69;;;14.65;52.14
55801;BME280;41730;51.960;20.158;2023-03-14T12:07:23;98176.02;;;14.49;52.35
55801;BME280;41730;51.960;20.158;2023-03-14T12:09:59;98174.29;;;14.43;52.42
55801;BME280;41730;51.960;20.158;2023-03-14T12:12:31;98170.78;;;14.37;52.49
55801;BME280;41730;51.960;20.158;2023-03-14T12:15:14;98172.81;;;14.35;52.79
55801;BME280;41730;51.960;20.158;2023-03-14T12:17:54;98176.78;;;14.29;52.88
55801;BME280;41730;51.960;20.158;2023-03-14T12:20:28;98176.05;;;14.26;53.36
55801;BME280;41730;51.960;20.158;2023-03-14T12:23:04;98177.45;;;14.14;53.78
55801;BME280;41730;51.960;20.158;2023-03-14T12:25:37;98181.83;;;14.08;54.03
55801;BME280;41730;51.960;20.158;2023-03-14T12:28:19;98184.57;;;14.04;54.19
55801;BME280;41730;51.960;20.158;2023-03-14T12:30:51;98187.32;;;13.87;54.53
55801;BME280;41730;51.960;20.158;2023-03-14T12:33:32;98191.23;;;13.70;55.38
55801;BME280;41730;51.960;20.158;2023-03-14T12:39:22;98185.58;;;13.46;56.78
55801;BME280;41730;51.960;20.158;2023-03-14T12:42:09;98189.70;;;13.24;57.80
55801;BME280;41730;51.960;20.158;2023-03-14T12:44:44;98192.40;;;12.99;58.96
55801;BME280;41730;51.960;20.158;2023-03-14T12:47:50;98192.10;;;12.97;59.05
55801;BME280;41730;51.960;20.158;2023-03-14T12:50:30;98187.95;;;12.80;59.63
55801;BME280;41730;51.960;20.158;2023-03-14T12:53:39;98193.45;;;12.61;60.41
55801;BME280;41730;51.960;20.158;2023-03-14T12:56:32;98189.48;;;12.55;61.23
55801;BME280;41730;51.960;20.158;2023-03-14T13:01:59;98195.98;;;12.37;61.58
55801;BME280;41730;51.960;20.158;2023-03-14T13:04:34;98192.08;;;12.23;62.81
55801;BME280;41730;51.960;20.158;2023-03-14T13:07:28;98191.16;;;12.21;63.43
55801;BME280;41730;51.960;20.158;2023-03-14T13:10:14;98194.96;;;12.15;63.58
55801;BME280;41730;51.960;20.158;2023-03-14T13:12:52;98191.53;;;12.10;64.23
55801;BME280;41730;51.960;20.158;2023-03-14T13:15:35;98186.41;;;12.01;64.44
55801;BME280;41730;51.960;20.158;2023-03-14T13:18:14;98179.52;;;11.92;64.93
55801;BME280;41730;51.960;20.158;2023-03-14T13:20:51;98171.88;;;11.84;65.52
55801;BME280;41730;51.960;20.158;2023-03-14T13:23:26;98161.20;;;11.78;65.75
55801;BME280;41730;51.960;20.158;2023-03-14T13:25:59;98156.77;;;11.69;66.47
55801;BME280;41730;51.960;20.158;2023-03-14T13:28:32;98148.28;;;11.65;66.65
55801;BME280;41730;51.960;20.158;2023-03-14T13:31:23;98142.23;;;11.78;66.54
55801;BME280;41730;51.960;20.158;2023-03-14T13:34:04;98147.27;;;11.76;66.83
55801;BME280;41730;51.960;20.158;2023-03-14T13:36:38;98150.81;;;11.77;66.99